Time;durP1;ratioP1;P1;durP2;ratioP2;P2;SDS_P1;SDS_P2;PMS_P1;PMS_P2;Temp;Humidity;BMP_temperature;BMP_pressure;BME280_temperature;BME280_humidity;BME280_pressure;Samples;Min_cycle;Max_cycle;Signal;HPM_P1;HPM_P2
2023/03/18 00:02:20;;;;;;;10.52;6.45;;;16.80;89.40;;;;;;5094916;28;20044;-62
2023/03/18 00:04:46;;;;;;;12.00;6.35;;;16.80;91.00;;;;;;5094229;28;20489;-61
2023/03/18 00:07:12;;;;;;;15.15;6.35;;;16.90;90.90;;;;;;5093871;28;20127;-62
2023/03/18 00:09:39;;;;;;;9.27;5.75;;;16.60;90.90;;;;;;5093913;28;20062;-61
2023/03/18 00:12:05;;;;;;;10.85;6.68;;;16.50;90.70;;;;;;5093009;28;20060;-62
2023/03/18 00:14:31;;;;;;;10.70;6.32;;;;;;;;;;5093568;28;20048;-61
2023/03/18 00:16:57;;;;;;;10.60;6.43;;;16.80;90.80;;;;;;5093834;28;20086;-64
2023/03/18 00:19:26;;;;;;;10.57;5.82;;;16.80;90.80;;;;;;5093926;28;20056;-62
2023/03/18 00:21:52;;;;;;;8.85;5.72;;;16.70;90.80;;;;;;5094008;28;20398;-62
2023/03/18 00:24:18;;;;;;;10.07;6.15;;;;;;;;;;5087894;28;20059;-62
2023/03/18 00:26:44;;;;;;;10.43;5.82;;;16.70;90.80;;;;;;5093614;28;20047;-61
2023/03/18 00:29:10;;;;;;;9.40;5.45;;;16.60;89.90;;;;;;5093988;28;20044;-62
2023/03/18 00:31:37;;;;;;;9.68;5.32;;;16.90;90.80;;;;;;5092407;28;20104;-62
2023/03/18 00:34:03;;;;;;;10.02;5.72;;;16.90;90.70;;;;;;5081713;28;20052;-61
2023/03/18 00:36:29;;;;;;;9.15;5.22;;;16.80;90.70;;;;;;5093775;28;20082;-62
2023/03/18 00:38:56;;;;;;;8.60;5.43;;;16.70;90.70;;;;;;5093435;28;20569;-61
2023/03/18 00:41:26;;;;;;;8.43;4.72;;;;;;;;;;5093827;28;20040;-62
2023/03/18 00:43:52;;;;;;;9.70;5.30;;;16.70;90.60;;;;;;5092382;28;20051;-61
2023/03/18 00:46:20;;;;;;;10.55;5.07;;;16.90;90.70;;;;;;5092308;28;20044;-62
2023/03/18 00:48:47;;;;;;;8.70;5.07;;;16.80;90.70;;;;;;5090681;28;20101;-61
2023/03/18 00:51:15;;;;;;;7.57;4.97;;;16.90;90.70;;;;;;5073244;28;20106;-62
2023/03/18 00:53:43;;;;;;;8.55;5.05;;;16.60;89.00;;;;;;5085630;28;20071;-63
2023/03/18 00:56:10;;;;;;;8.70;4.35;;;16.80;90.70;;;;;;5073075;28;20052;-62
2023/03/18 00:58:36;;;;;;;9.95;4.78;;;16.70;90.60;;;;;;5087467;28;20056;-62
2023/03/18 01:01:05;;;;;;;8.98;4.53;;;16.80;90.60;;;;;;5093127;28;20089;-62
2023/03/18 01:03:32;;;;;;;6.75;4.28;;;16.70;90.60;;;;;;5066971;28;20501;-62
2023/03/18 01:05:59;;;;;;;9.00;4.68;;;16.70;90.60;;;;;;5103954;28;20119;-62
2023/03/18 01:08:25;;;;;;;7.22;4.38;;;16.60;90.50;;;;;;5092975;28;20052;-62
2023/03/18 01:10:52;;;;;;;7.20;4.25;;;;;;;;;;5091857;28;20067;-62
2023/03/18 01:13:18;;;;;;;9.45;4.30;;;16.70;90.50;;;;;;5092524;28;20047;-62
2023/03/18 01:15:44;;;;;;;8.73;4.32;;;16.70;90.50;;;;;;5092813;28;20048;-62
2023/03/18 01:18:12;;;;;;;8.32;4.25;;;16.70;90.60;;;;;;5091749;28;20055;-62
2023/03/18 01:20:38;;;;;;;7.45;4.55;;;16.40;90.50;;;;;;5075300;28;20051;-62
2023/03/18 01:23:04;;;;;;;7.38;4.55;;;16.40;90.50;;;;;;5092520;28;20044;-62
2023/03/18 01:25:30;;;;;;;7.88;3.63;;;16.90;90.60;;;;;;5074345;28;20048;-62
2023/03/18 01:27:57;;;;;;;6.00;3.67;;;16.80;90.60;;;;;;5093074;28;20048;-62
2023/03/18 01:30:23;;;;;;;8.02;4.10;;;;;;;;;;5091758;28;20139;-63
2023/03/18 01:32:49;;;;;;;8.85;3.83;;;16.70;90.50;;;;;;5090599;28;20043;-67
2023/03/18 01:35:15;;;;;;;7.20;4.03;;;16.80;90.50;;;;;;5093329;28;20096;-62
2023/03/18 01:37:42;;;;;;;7.57;3.53;;;;;;;;;;5092760;28;20043;-64
2023/03/18 01:40:10;;;;;;;6.47;3.50;;;16.70;87.80;;;;;;5086946;28;20460;-63
2023/03/18 01:42:36;;;;;;;8.10;3.60;;;16.90;90.60;;;;;;5082241;28;20074;-64
2023/03/18 01:45:22;;;;;;;6.85;4.07;;;16.80;87.00;;;;;;5093082;28;20040;-68
2023/03/18 01:47:48;;;;;;;5.90;3.50;;;16.90;90.60;;;;;;5092659;28;20416;-69
2023/03/18 01:50:27;;;;;;;6.43;3.80;;;16.60;90.00;;;;;;5089889;28;20109;-65
2023/03/18 01:52:55;;;;;;;8.82;4.60;;;17.00;88.20;;;;;;5088288;28;20048;-68
2023/03/18 01:55:24;;;;;;;7.07;4.57;;;16.70;90.50;;;;;;5057530;28;20044;-69
2023/03/18 01:57:50;;;;;;;7.57;4.20;;;17.00;90.50;;;;;;5064227;28;20501;-66
2023/03/18 02:00:16;;;;;;;6.03;3.75;;;16.90;90.50;;;;;;5071994;28;20520;-68
2023/03/18 02:02:43;;;;;;;7.45;3.70;;;16.70;90.50;;;;;;5084165;28;20036;-68
2023/03/18 02:05:10;;;;;;;8.68;4.05;;;16.80;88.00;;;;;;5092502;28;20051;-67
2023/03/18 02:07:36;;;;;;;8.88;3.92;;;16.40;90.40;;;;;;5103183;28;20084;-63
2023/03/18 02:10:09;;;;;;;6.82;4.05;;;16.80;90.50;;;;;;5091726;28;20072;-61
2023/03/18 02:12:37;;;;;;;;;;;16.70;88.10;;;;;;5091791;28;20391;-63
2023/03/18 02:15:09;;;;;;;10.10;4.40;;;16.70;90.50;;;;;;5087884;28;19927;-62
2023/03/18 02:17:39;;;;;;;8.20;4.20;;;16.90;89.70;;;;;;5091881;28;20055;-62
2023/03/18 02:20:28;;;;;;;7.03;4.22;;;16.80;88.50;;;;;;5074727;28;20131;-63
2023/03/18 02:23:08;;;;;;;8.48;4.78;;;16.60;86.90;;;;;;5074710;28;20044;-62
2023/03/18 02:26:08;;;;;;;6.88;3.92;;;16.70;90.50;;;;;;5090462;28;20051;-62
2023/03/18 02:28:33;;;;;;;8.40;4.22;;;16.50;90.50;;;;;;5087518;28;20505;-69
2023/03/18 02:31:00;;;;;;;7.05;4.05;;;;;;;;;;5056467;28;20059;-62
2023/03/18 02:33:30;;;;;;;7.55;4.22;;;16.80;90.50;;;;;;5057773;28;20041;-62
2023/03/18 02:35:59;;;;;;;7.38;4.50;;;16.90;89.80;;;;;;5057462;28;20083;-62
2023/03/18 02:38:25;;;;;;;6.85;4.47;;;;;;;;;;5062669;28;20080;-68
2023/03/18 02:40:51;;;;;;;7.57;4.03;;;17.00;90.60;;;;;;5075497;28;20463;-67
2023/03/18 02:43:21;;;;;;;7.88;4.75;;;16.70;90.50;;;;;;5073882;28;20131;-62
2023/03/18 02:46:13;;;;;;;8.02;4.50;;;16.70;88.40;;;;;;5075346;28;20055;-62
2023/03/18 02:48:41;;;;;;;8.55;4.85;;;16.70;90.50;;;;;;5088942;28;20490;-61
2023/03/18 02:51:07;;;;;;;8.35;4.63;;;16.60;90.50;;;;;;5092456;28;20119;-62
2023/03/18 02:53:33;;;;;;;8.65;5.15;;;16.70;90.50;;;;;;5095256;28;20048;-62
2023/03/18 02:55:59;;;;;;;8.20;4.82;;;16.60;90.50;;;;;;5095576;28;20047;-61
2023/03/18 02:58:25;;;;;;;7.18;4.50;;;16.70;90.60;;;;;;5094922;28;20040;-64
2023/03/18 03:00:51;;;;;;;8.75;4.88;;;16.70;90.60;;;;;;5095455;28;20043;-62
2023/03/18 03:03:17;;;;;;;8.00;5.13;;;;;;;;;;5077204;28;20498;-66
2023/03/18 03:05:43;;;;;;;8.68;5.25;;;;;;;;;;5075224;28;20032;-63
2023/03/18 03:08:09;;;;;;;9.82;5.15;;;16.70;90.60;;;;;;5075907;28;20134;-62
2023/03/18 03:10:35;;;;;;;9.48;5.05;;;16.80;90.60;;;;;;5108908;28;20453;-62
2023/03/18 03:13:01;;;;;;;7.63;5.43;;;16.60;90.50;;;;;;5092972;28;20059;-62
2023/03/18 03:15:27;;;;;;;9.05;5.20;;;;;;;;;;5095127;28;20707;-61
2023/03/18 03:17:53;;;;;;;8.18;4.40;;;16.70;90.60;;;;;;5076893;28;20044;-62
2023/03/18 03:20:19;;;;;;;9.18;5.35;;;16.70;90.60;;;;;;5107870;28;20093;-62
2023/03/18 03:22:45;;;;;;;9.32;5.28;;;16.80;90.60;;;;;;5102505;28;20515;-62
2023/03/18 03:25:11;;;;;;;9.32;5.57;;;17.10;90.70;;;;;;5094844;28;20047;-62
2023/03/18 03:27:37;;;;;;;10.85;6.07;;;16.80;90.60;;;;;;5094592;28;20070;-62
2023/03/18 03:30:08;;;;;;;8.50;5.45;;;16.80;88.50;;;;;;5094717;28;20408;-69
2023/03/18 03:32:34;;;;;;;11.18;5.88;;;16.40;90.50;;;;;;5092931;28;20040;-62
2023/03/18 03:35:00;;;;;;;8.63;5.50;;;16.70;90.60;;;;;;5093012;28;20378;-62
2023/03/18 03:37:26;;;;;;;9.30;5.55;;;16.70;90.60;;;;;;5091527;28;20040;-62
2023/03/18 03:39:52;;;;;;;9.70;5.80;;;16.50;90.60;;;;;;5082274;28;20084;-62
2023/03/18 03:42:18;;;;;;;9.85;5.50;;;16.60;90.60;;;;;;5080908;28;20475;-62
2023/03/18 03:44:45;;;;;;;9.25;5.97;;;16.70;90.60;;;;;;5094550;28;20044;-62
2023/03/18 03:47:11;;;;;;;9.45;5.65;;;16.70;90.60;;;;;;5080223;28;20041;-61
2023/03/18 03:49:36;;;;;;;10.30;5.97;;;16.70;90.60;;;;;;5073819;28;20102;-62
2023/03/18 03:52:03;;;;;;;10.65;6.13;;;16.40;87.30;;;;;;5074023;28;20033;-67
2023/03/18 03:54:29;;;;;;;9.25;6.25;;;;;;;;;;5094285;28;20413;-62
2023/03/18 03:56:55;;;;;;;8.60;5.70;;;16.60;90.70;;;;;;5093583;28;20039;-61
2023/03/18 03:59:21;;;;;;;8.27;5.43;;;16.30;90.60;;;;;;5076080;28;20528;-62
2023/03/18 04:01:47;;;;;;;9.88;6.00;;;16.90;90.70;;;;;;5094487;28;20044;-62
2023/03/18 04:04:13;;;;;;;10.55;6.35;;;16.80;90.70;;;;;;5094124;28;20048;-61
2023/03/18 04:06:39;;;;;;;8.95;5.78;;;16.60;90.60;;;;;;5092663;28;20067;-61
2023/03/18 04:09:05;;;;;;;10.90;6.35;;;;;;;;;;5093625;28;20404;-63
2023/03/18 04:11:31;;;;;;;10.38;6.18;;;;;;;;;;5093939;28;20055;-62
2023/03/18 04:13:57;;;;;;;10.77;6.63;;;16.70;90.60;;;;;;5080914;28;20056;-62
2023/03/18 04:16:22;;;;;;;11.23;6.90;;;16.80;90.70;;;;;;5073921;28;20045;-61
2023/03/18 04:18:48;;;;;;;10.70;6.78;;;16.60;90.60;;;;;;5073718;28;20047;-62
2023/03/18 04:21:15;;;;;;;10.82;7.40;;;16.60;90.60;;;;;;5114402;28;20119;-62
2023/03/18 04:23:41;;;;;;;9.98;6.68;;;16.40;90.60;;;;;;5114472;28;20054;-62
2023/03/18 04:26:07;;;;;;;11.38;7.20;;;16.60;90.60;;;;;;5114389;28;20039;-62
2023/03/18 04:28:33;;;;;;;11.68;6.82;;;16.80;90.60;;;;;;5095722;28;20078;-69
2023/03/18 04:30:59;;;;;;;11.60;7.20;;;16.80;90.70;;;;;;5093464;28;20047;-62
2023/03/18 04:33:25;;;;;;;12.30;6.97;;;16.80;90.70;;;;;;5113958;28;20083;-61
2023/03/18 04:35:52;;;;;;;11.95;7.43;;;;;;;;;;5114007;28;20043;-61
2023/03/18 04:38:18;;;;;;;13.00;7.97;;;16.60;90.60;;;;;;5112206;28;20044;-67
2023/03/18 04:40:44;;;;;;;12.43;6.82;;;;;;;;;;5090635;28;20477;-68
2023/03/18 04:43:10;;;;;;;11.90;7.75;;;16.50;90.60;;;;;;5092436;28;20119;-62
2023/03/18 04:45:36;;;;;;;10.30;7.50;;;;;;;;;;5093238;28;20518;-62
2023/03/18 04:48:03;;;;;;;10.13;6.95;;;16.70;90.40;;;;;;5079444;28;20084;-64
2023/03/18 04:50:28;;;;;;;11.93;8.10;;;16.70;90.70;;;;;;5073093;28;20119;-62
2023/03/18 04:52:54;;;;;;;12.00;7.72;;;16.50;90.60;;;;;;5072973;28;20628;-62
2023/03/18 04:55:20;;;;;;;11.63;7.95;;;16.60;90.00;;;;;;5073247;28;20101;-61
2023/03/18 04:57:47;;;;;;;12.38;8.00;;;;;;;;;;5089176;28;20397;-61
2023/03/18 05:00:17;;;;;;;12.35;7.70;;;;;;;;;;5093033;28;20046;-62
2023/03/18 05:02:42;;;;;;;13.95;8.07;;;16.70;90.70;;;;;;5092957;28;20043;-62
2023/03/18 05:05:09;;;;;;;12.63;8.20;;;16.60;90.70;;;;;;5093358;28;20498;-61
2023/03/18 05:07:35;;;;;;;11.93;7.72;;;16.50;90.70;;;;;;5093162;28;20044;-62
2023/03/18 05:10:05;;;;;;;10.77;8.00;;;16.30;90.60;;;;;;5105356;28;20039;-62
2023/03/18 05:12:32;;;;;;;12.48;7.78;;;16.70;90.70;;;;;;5110270;28;20105;-61
2023/03/18 05:14:58;;;;;;;12.50;8.07;;;;;;;;;;5093297;28;20398;-64
2023/03/18 05:17:24;;;;;;;11.75;7.70;;;16.70;90.70;;;;;;5092720;28;20542;-61
2023/03/18 05:19:50;;;;;;;10.95;7.60;;;16.70;90.70;;;;;;5093117;28;20477;-62
2023/03/18 05:22:17;;;;;;;11.90;7.88;;;16.60;90.80;;;;;;5092497;28;20127;-62
2023/03/18 05:24:44;;;;;;;12.85;7.70;;;16.60;90.70;;;;;;5076125;28;20550;-62
2023/03/18 05:27:11;;;;;;;12.95;7.60;;;16.50;90.70;;;;;;5078188;28;20044;-62
2023/03/18 05:29:39;;;;;;;10.70;8.13;;;16.40;90.70;;;;;;5093251;28;20109;-61
2023/03/18 05:32:08;;;;;;;10.82;7.68;;;16.30;90.60;;;;;;5092709;28;20036;-62
2023/03/18 05:34:36;;;;;;;11.70;8.02;;;16.90;89.50;;;;;;5086473;28;20450;-62
2023/03/18 05:37:03;;;;;;;12.52;7.63;;;16.60;90.70;;;;;;5090626;28;20051;-65
2023/03/18 05:39:30;;;;;;;12.10;7.22;;;16.80;90.80;;;;;;5091512;28;20052;-62
2023/03/18 05:41:56;;;;;;;10.70;7.45;;;16.60;90.80;;;;;;5092737;28;20044;-61
2023/03/18 05:44:22;;;;;;;12.73;7.63;;;16.50;90.70;;;;;;5092697;28;20405;-62
2023/03/18 05:46:51;;;;;;;12.07;7.75;;;16.50;90.70;;;;;;5092394;28;20063;-61
2023/03/18 05:49:17;;;;;;;11.25;7.72;;;16.80;90.80;;;;;;5091583;28;20044;-61
2023/03/18 05:51:43;;;;;;;15.05;8.18;;;16.50;90.80;;;;;;5074201;28;20052;-62
2023/03/18 05:54:09;;;;;;;12.70;8.07;;;16.70;87.80;;;;;;5072436;28;20505;-62
2023/03/18 05:56:35;;;;;;;11.70;6.97;;;16.50;90.80;;;;;;5072708;28;20116;-62
2023/03/18 05:59:02;;;;;;;11.77;7.50;;;16.60;90.80;;;;;;5086680;28;20047;-62
2023/03/18 06:01:29;;;;;;;10.27;7.18;;;16.70;90.80;;;;;;5096756;28;20119;-62
2023/03/18 06:03:55;;;;;;;10.50;6.90;;;;;;;;;;5094728;28;20052;-72
2023/03/18 06:06:22;;;;;;;12.85;7.30;;;16.70;90.70;;;;;;5093318;28;20044;-66
2023/03/18 06:08:48;;;;;;;13.05;7.63;;;16.30;90.60;;;;;;5096034;28;20409;-61
2023/03/18 06:11:14;;;;;;;11.88;7.45;;;16.80;90.80;;;;;;5093395;28;20040;-66
2023/03/18 06:13:40;;;;;;;11.98;7.93;;;16.60;90.80;;;;;;5077617;28;20044;-63
2023/03/18 06:16:07;;;;;;;10.60;7.00;;;16.50;90.70;;;;;;5057142;28;20080;-62
2023/03/18 06:18:34;;;;;;;9.88;6.68;;;16.70;90.80;;;;;;5075742;28;20049;-71
2023/03/18 06:21:00;;;;;;;10.95;7.05;;;16.80;90.90;;;;;;5075738;28;20105;-69
2023/03/18 06:23:26;;;;;;;11.95;7.28;;;;;;;;;;5090502;28;20052;-67
2023/03/18 06:25:52;;;;;;;10.90;6.85;;;;;;;;;;5076471;28;20056;-68
2023/03/18 06:28:18;;;;;;;12.93;7.18;;;17.10;90.90;;;;;;5075225;28;20501;-61
2023/03/18 06:30:44;;;;;;;10.60;6.70;;;16.60;90.80;;;;;;5094763;28;20032;-63
2023/03/18 06:33:09;;;;;;;12.68;7.10;;;16.80;90.80;;;;;;5093691;28;20172;-63
2023/03/18 06:35:35;;;;;;;9.88;6.60;;;16.90;90.90;;;;;;5092566;28;20073;-66
2023/03/18 06:38:01;;;;;;;11.95;7.13;;;;;;;;;;5067483;28;20378;-68
2023/03/18 06:40:27;;;;;;;11.60;7.35;;;16.70;90.80;;;;;;5095607;28;20040;-66
2023/03/18 06:42:53;;;;;;;10.85;6.55;;;17.10;90.90;;;;;;5095306;28;20048;-65
2023/03/18 06:45:21;;;;;;;11.13;6.97;;;17.00;87.30;;;;;;5095549;28;20127;-65
2023/03/18 06:47:48;;;;;;;10.43;6.43;;;;;;;;;;5083883;28;20036;-66
2023/03/18 06:50:14;;;;;;;10.55;7.15;;;16.70;90.80;;;;;;5095484;28;20178;-66
2023/03/18 06:52:40;;;;;;;9.70;6.72;;;16.90;90.80;;;;;;5092866;28;20488;-67
2023/03/18 06:55:06;;;;;;;11.10;6.65;;;17.00;90.90;;;;;;5094223;28;20054;-66
2023/03/18 06:57:33;;;;;;;11.32;7.07;;;16.70;90.80;;;;;;5093424;28;20036;-66
2023/03/18 06:59:59;;;;;;;10.68;6.43;;;16.90;90.80;;;;;;5072599;28;20479;-63
2023/03/18 07:02:26;;;;;;;10.35;6.78;;;16.90;90.80;;;;;;5074750;28;20045;-65
2023/03/18 07:04:52;;;;;;;11.95;6.75;;;17.10;90.90;;;;;;5094603;28;20040;-64
2023/03/18 07:07:18;;;;;;;10.90;6.65;;;;;;;;;;5095203;28;20538;-64
2023/03/18 07:09:44;;;;;;;11.23;6.35;;;;;;;;;;5092390;28;20122;-64
2023/03/18 07:12:12;;;;;;;10.73;6.38;;;16.70;90.40;;;;;;5069519;28;20556;-65
2023/03/18 07:14:42;;;;;;;11.52;6.72;;;17.20;90.40;;;;;;5076483;28;20126;-65
2023/03/18 07:17:09;;;;;;;9.77;5.90;;;17.20;90.80;;;;;;5094933;28;20406;-62
2023/03/18 07:19:35;;;;;;;10.20;6.50;;;17.10;90.70;;;;;;5067008;28;20055;-66
2023/03/18 07:22:01;;;;;;;9.52;6.32;;;17.10;90.70;;;;;;5085991;28;20131;-67
2023/03/18 07:24:27;;;;;;;8.82;6.15;;;17.30;90.80;;;;;;5085188;28;20094;-69
2023/03/18 07:26:53;;;;;;;12.98;6.20;;;17.30;90.80;;;;;;5083687;28;20405;-68
2023/03/18 07:29:19;;;;;;;12.25;6.60;;;17.20;90.60;;;;;;5074301;28;20059;-65
2023/03/18 07:31:45;;;;;;;10.85;6.25;;;;;;;;;;5059694;28;20040;-64
2023/03/18 07:34:12;;;;;;;11.43;6.82;;;17.30;89.90;;;;;;5074059;28;20501;-64
2023/03/18 07:36:38;;;;;;;9.90;6.05;;;17.30;90.70;;;;;;5069014;28;20033;-66
2023/03/18 07:39:05;;;;;;;10.07;6.57;;;17.40;88.50;;;;;;5074504;28;20052;-66
2023/03/18 07:41:30;;;;;;;11.13;6.50;;;17.50;90.80;;;;;;5074340;28;20555;-65
2023/03/18 07:43:56;;;;;;;17.70;6.28;;;17.30;90.70;;;;;;5058494;28;20040;-65
2023/03/18 07:46:22;;;;;;;9.15;5.78;;;17.20;90.60;;;;;;5063166;28;20048;-65
2023/03/18 07:48:48;;;;;;;8.93;5.93;;;17.40;90.70;;;;;;5073059;28;20029;-71
2023/03/18 07:51:14;;;;;;;9.48;5.55;;;17.30;90.70;;;;;;5073309;28;20581;-71
2023/03/18 07:53:41;;;;;;;12.52;6.32;;;17.50;90.50;;;;;;5069041;28;20120;-72
2023/03/18 07:56:07;;;;;;;10.95;6.05;;;17.70;90.70;;;;;;5087064;28;20178;-71
2023/03/18 07:58:33;;;;;;;11.77;5.95;;;17.60;87.70;;;;;;5087827;28;20044;-72
2023/03/18 08:00:59;;;;;;;9.27;5.68;;;17.80;90.60;;;;;;5089667;28;20750;-65
2023/03/18 08:03:25;;;;;;;11.45;5.30;;;;;;;;;;5085264;28;20049;-73
2023/03/18 08:05:51;;;;;;;8.82;5.47;;;17.50;90.40;;;;;;5079069;28;20033;-72
2023/03/18 08:08:17;;;;;;;10.65;5.72;;;17.70;90.50;;;;;;5093312;28;20063;-72
2023/03/18 08:10:43;;;;;;;8.40;5.38;;;17.90;90.50;;;;;;5085579;28;20056;-73
2023/03/18 08:13:08;;;;;;;8.82;5.22;;;18.00;90.60;;;;;;5052969;28;20064;-72
2023/03/18 08:15:34;;;;;;;10.32;5.90;;;18.00;90.50;;;;;;5069265;28;20457;-71
2023/03/18 08:18:01;;;;;;;8.90;5.60;;;;;;;;;;5070864;28;20083;-65
2023/03/18 08:20:27;;;;;;;9.27;5.25;;;17.70;90.40;;;;;;5060687;28;20053;-65
2023/03/18 08:22:53;;;;;;;9.10;5.68;;;17.80;90.40;;;;;;5066193;28;20457;-70
2023/03/18 08:25:21;;;;;;;8.88;5.63;;;17.80;90.40;;;;;;5064577;28;20044;-69
2023/03/18 08:27:47;;;;;;;11.70;6.43;;;17.90;90.40;;;;;;5059645;28;20043;-71
2023/03/18 08:30:13;;;;;;;9.95;5.45;;;17.90;90.50;;;;;;5062442;28;20490;-70
2023/03/18 08:32:39;;;;;;;12.70;6.47;;;17.80;90.40;;;;;;5063128;28;20040;-66
2023/03/18 08:35:05;;;;;;;11.27;6.57;;;17.70;90.30;;;;;;5060919;28;20083;-66
2023/03/18 08:37:32;;;;;;;13.10;5.88;;;;;;;;;;5066459;28;20095;-62
2023/03/18 08:39:59;;;;;;;12.13;6.47;;;;;;;;;;5072299;28;20445;-62
2023/03/18 08:42:24;;;;;;;11.75;6.55;;;18.00;90.50;;;;;;5071154;28;20123;-61
2023/03/18 08:44:50;;;;;;;11.02;6.85;;;17.80;90.40;;;;;;5070515;28;20975;-61
2023/03/18 08:47:16;;;;;;;10.00;6.70;;;17.90;90.40;;;;;;5071280;28;20040;-61
2023/03/18 08:49:42;;;;;;;11.35;7.00;;;;;;;;;;5053628;28;20052;-62
2023/03/18 08:52:09;;;;;;;11.07;6.97;;;18.00;90.50;;;;;;5071226;28;20047;-68
2023/03/18 08:54:35;;;;;;;12.18;7.32;;;17.90;90.50;;;;;;5071315;28;20135;-69
2023/03/18 08:57:01;;;;;;;12.13;7.50;;;;;;;;;;5070940;28;20115;-69
2023/03/18 08:59:27;;;;;;;11.55;7.43;;;18.00;90.60;;;;;;5070707;28;20670;-68
2023/03/18 09:01:53;;;;;;;12.45;7.43;;;17.90;90.40;;;;;;5068222;28;20059;-70
2023/03/18 09:04:19;;;;;;;12.90;7.32;;;17.90;90.50;;;;;;5067432;28;20047;-70
2023/03/18 09:06:45;;;;;;;11.73;7.70;;;;;;;;;;5069324;28;20074;-70
2023/03/18 09:09:11;;;;;;;12.35;8.15;;;17.90;90.50;;;;;;5071415;28;20135;-70
2023/03/18 09:11:38;;;;;;;13.57;7.70;;;18.00;90.40;;;;;;5074057;28;20170;-70
2023/03/18 09:14:04;;;;;;;12.85;8.13;;;18.10;90.50;;;;;;5090767;28;20048;-70
2023/03/18 09:16:30;;;;;;;12.93;7.50;;;17.90;90.40;;;;;;5093573;28;20516;-70
2023/03/18 09:18:55;;;;;;;11.02;7.75;;;18.00;90.40;;;;;;5092065;28;20523;-66
2023/03/18 09:21:21;;;;;;;13.38;7.50;;;17.80;90.40;;;;;;5084962;28;20050;-70
2023/03/18 09:23:49;;;;;;;10.57;7.53;;;18.00;90.40;;;;;;5090145;28;20048;-70
2023/03/18 09:26:15;;;;;;;11.88;8.20;;;18.00;90.40;;;;;;5090096;28;20040;-66
2023/03/18 09:28:41;;;;;;;12.82;7.80;;;18.40;90.50;;;;;;5089904;28;20119;-66
2023/03/18 09:31:07;;;;;;;14.90;8.55;;;18.20;90.40;;;;;;5090380;28;20132;-69
2023/03/18 09:33:33;;;;;;;11.40;7.20;;;18.00;90.30;;;;;;5095812;28;20048;-65
2023/03/18 09:35:58;;;;;;;12.63;8.10;;;18.10;90.40;;;;;;5090548;28;20486;-66
2023/03/18 09:38:24;;;;;;;10.18;7.07;;;18.20;87.60;;;;;;5095708;28;20051;-67
2023/03/18 09:41:42;;;;;;;11.30;7.80;;;18.00;88.30;;;;;;5095531;28;20036;-65
2023/03/18 09:44:25;;;;;;;12.27;7.78;;;18.10;86.70;;;;;;5087604;28;20554;-66
2023/03/18 09:47:27;;;;;;;12.82;7.20;;;18.30;86.90;;;;;;5096325;28;20051;-65
2023/03/18 09:50:00;;;;;;;14.52;8.43;;;18.20;90.40;;;;;;5085786;28;20048;-64
2023/03/18 09:52:30;;;;;;;13.20;7.38;;;18.20;87.70;;;;;;5095064;28;20051;-72
2023/03/18 09:55:14;;;;;;;11.82;6.82;;;18.30;88.10;;;;;;5091584;28;20060;-71
2023/03/18 09:57:42;;;;;;;10.50;7.18;;;18.40;87.80;;;;;;5078301;28;20084;-66
2023/03/18 10:00:18;;;;;;;10.60;6.85;;;18.00;86.00;;;;;;5058352;28;20052;-66
2023/03/18 10:03:05;;;;;;;9.52;7.00;;;18.00;90.30;;;;;;5095743;28;20051;-62
2023/03/18 10:05:37;;;;;;;10.75;7.07;;;18.20;90.10;;;;;;5078113;28;20489;-67
2023/03/18 10:08:12;;;;;;;12.32;6.90;;;18.50;90.40;;;;;;5095496;28;20448;-70
2023/03/18 10:10:38;;;;;;;11.80;6.30;;;;;;;;;;5067520;28;20090;-66
2023/03/18 10:13:09;;;;;;;11.25;7.35;;;18.30;90.40;;;;;;5091912;28;20118;-67
2023/03/18 10:15:44;;;;;;;10.30;6.43;;;18.30;86.40;;;;;;5077957;28;20452;-66
2023/03/18 10:18:10;;;;;;;8.38;5.78;;;18.40;90.10;;;;;;5077814;28;20040;-69
2023/03/18 10:20:43;;;;;;;8.68;5.95;;;18.20;90.30;;;;;;5095487;28;20127;-66
2023/03/18 10:23:19;;;;;;;11.23;6.43;;;18.20;87.60;;;;;;5062783;28;20113;-66
2023/03/18 10:25:52;;;;;;;13.43;6.72;;;18.40;88.00;;;;;;5078933;28;20044;-66
2023/03/18 10:28:33;;;;;;;10.90;6.55;;;18.10;90.20;;;;;;5062421;28;20048;-66
2023/03/18 10:31:00;;;;;;;8.82;6.15;;;;;;;;;;5074123;28;20048;-66
2023/03/18 10:33:28;;;;;;;10.65;6.57;;;18.50;90.30;;;;;;5109813;28;20047;-66
2023/03/18 10:35:58;;;;;;;10.85;6.90;;;18.30;87.50;;;;;;5109518;28;20051;-66
2023/03/18 10:38:33;;;;;;;13.02;7.15;;;18.20;90.20;;;;;;5075521;28;20093;-70
2023/03/18 10:40:59;;;;;;;10.73;6.63;;;18.50;90.30;;;;;;5093858;28;20091;-61
2023/03/18 10:43:28;;;;;;;13.15;6.32;;;18.70;90.40;;;;;;5076206;28;20055;-61
2023/03/18 10:46:02;;;;;;;10.38;6.65;;;18.80;90.40;;;;;;5094685;28;20379;-63
2023/03/18 10:48:31;;;;;;;12.43;6.55;;;18.50;90.40;;;;;;5077297;28;20418;-70
2023/03/18 10:51:09;;;;;;;15.10;6.95;;;18.20;86.10;;;;;;5093665;28;20109;-69
2023/03/18 10:53:38;;;;;;;15.02;8.60;;;18.90;90.60;;;;;;5101796;28;20393;-68
2023/03/18 10:56:11;;;;;;;21.02;9.38;;;18.80;90.60;;;;;;5115000;28;20126;-68
2023/03/18 10:58:38;;;;;;;17.23;10.52;;;18.60;90.60;;;;;;5114983;28;20050;-68
2023/03/18 11:01:06;;;;;;;15.77;10.93;;;18.50;90.50;;;;;;5103892;28;20098;-60
2023/03/18 11:03:34;;;;;;;18.15;11.93;;;18.90;89.40;;;;;;5057684;28;20045;-64
2023/03/18 11:06:01;;;;;;;18.55;11.45;;;18.90;90.60;;;;;;5073258;28;20044;-63
2023/03/18 11:08:34;;;;;;;19.90;13.20;;;18.80;90.70;;;;;;5073639;28;20465;-62
2023/03/18 11:11:16;;;;;;;;;;;19.00;89.20;;;;;;5074730;28;20098;-62
2023/03/18 11:13:52;;;;;;;19.70;12.23;;;19.00;87.00;;;;;;5072925;28;19967;-61
2023/03/18 11:16:44;;;;;;;20.38;13.27;;;19.30;90.90;;;;;;5075141;28;20460;-61
2023/03/18 11:19:57;;;;;;;17.70;12.38;;;19.00;87.20;;;;;;5060190;28;20040;-62
2023/03/18 11:22:23;;;;;;;19.95;13.43;;;19.20;90.80;;;;;;5012885;28;20050;-62
2023/03/18 11:25:10;;;;;;;17.23;12.90;;;19.30;89.00;;;;;;5012524;28;20467;-62
2023/03/18 11:27:40;;;;;;;16.75;12.98;;;19.20;87.00;;;;;;5017728;28;20503;-62
2023/03/18 11:30:27;;;;;;;19.17;12.13;;;19.50;89.00;;;;;;5032173;28;20049;-62
2023/03/18 11:33:04;;;;;;;23.42;12.35;;;19.00;90.60;;;;;;5015646;28;20057;-62
2023/03/18 11:35:51;;;;;;;29.33;13.68;;;19.40;90.80;;;;;;5006847;28;20049;-63
2023/03/18 11:38:18;;;;;;;19.90;12.38;;;19.40;90.80;;;;;;5010578;28;20204;-61
2023/03/18 11:40:45;;;;;;;26.13;12.13;;;19.10;90.70;;;;;;5031882;28;20454;-62
2023/03/18 11:43:18;;;;;;;22.67;12.45;;;19.20;90.70;;;;;;5032333;28;20139;-62
2023/03/18 11:45:51;;;;;;;18.08;11.52;;;19.30;86.80;;;;;;5031444;28;20409;-69
2023/03/18 11:48:29;;;;;;;20.27;12.30;;;19.70;90.70;;;;;;5031282;28;20057;-62
2023/03/18 11:51:10;;;;;;;18.52;11.45;;;19.30;86.60;;;;;;5031076;28;20530;-70
2023/03/18 11:53:57;;;;;;;17.48;11.00;;;19.40;90.60;;;;;;5031412;28;20049;-70
2023/03/18 11:56:32;;;;;;;19.27;11.82;;;19.30;90.60;;;;;;5030478;28;20557;-70
2023/03/18 11:59:19;;;;;;;18.77;12.10;;;19.50;90.60;;;;;;5048202;28;20060;-71
2023/03/18 12:02:07;;;;;;;15.52;11.50;;;19.50;90.60;;;;;;5092384;28;20109;-71
2023/03/18 12:04:54;;;;;;;16.65;11.75;;;19.70;90.60;;;;;;5072812;28;20048;-70
2023/03/18 12:07:50;;;;;;;14.43;11.23;;;19.80;90.50;;;;;;5073071;28;20049;-71
2023/03/18 12:10:34;;;;;;;15.88;10.30;;;19.50;89.00;;;;;;5039080;28;20057;-63
2023/03/18 12:13:24;;;;;;;17.55;10.93;;;19.80;90.30;;;;;;5050570;28;20052;-64
2023/03/18 12:16:13;;;;;;;16.00;10.02;;;19.70;88.10;;;;;;5073032;28;20509;-64
2023/03/18 12:19:16;;;;;;;14.70;9.82;;;19.70;87.30;;;;;;5055442;28;20126;-63
2023/03/18 12:21:48;;;;;;;12.63;9.85;;;19.80;90.20;;;;;;5091999;28;20048;-64
2023/03/18 12:24:35;;;;;;;14.15;9.70;;;19.80;90.10;;;;;;5093184;28;20638;-63
2023/03/18 12:27:22;;;;;;;13.70;9.68;;;19.90;90.10;;;;;;5091948;28;20055;-64
2023/03/18 12:30:02;;;;;;;13.55;9.43;;;19.90;90.10;;;;;;5098709;28;20035;-63
2023/03/18 12:32:36;;;;;;;13.38;8.90;;;19.90;90.00;;;;;;5096250;28;20047;-70
2023/03/18 12:35:06;;;;;;;13.27;8.93;;;19.90;89.70;;;;;;5113806;28;20401;-71
2023/03/18 12:38:12;;;;;;;12.85;8.73;;;20.00;90.00;;;;;;5113183;28;20096;-67
2023/03/18 12:40:53;;;;;;;10.60;8.23;;;19.80;85.20;;;;;;5071337;28;20500;-62
2023/03/18 12:43:38;;;;;;;14.80;8.95;;;20.30;85.50;;;;;;5083948;28;20051;-65
2023/03/18 12:46:16;;;;;;;20.30;9.35;;;20.20;90.10;;;;;;5073151;28;20106;-63
2023/03/18 12:49:18;;;;;;;17.92;8.63;;;20.00;90.00;;;;;;5071841;28;20115;-71
2023/03/18 12:51:47;;;;;;;13.82;8.18;;;20.20;90.00;;;;;;5082197;28;20044;-61
2023/03/18 12:54:29;;;;;;;15.65;7.97;;;20.10;85.10;;;;;;5092873;28;20469;-67
2023/03/18 12:57:05;;;;;;;14.57;7.90;;;20.40;89.90;;;;;;5058397;28;20040;-63
2023/03/18 12:59:43;;;;;;;13.93;8.13;;;20.20;89.60;;;;;;5074151;28;20044;-70
2023/03/18 13:02:18;;;;;;;11.43;7.05;;;20.20;89.60;;;;;;5087460;28;20040;-67
2023/03/18 13:04:50;;;;;;;11.27;6.80;;;20.40;89.70;;;;;;5113386;28;20055;-66
2023/03/18 13:07:20;;;;;;;12.50;6.45;;;20.30;89.50;;;;;;5077977;28;20485;-63